Time;durP1;ratioP1;P1;durP2;ratioP2;P2;SDS_P1;SDS_P2;PMS_P1;PMS_P2;Temp;Humidity;BMP_temperature;BMP_pressure;BME280_temperature;BME280_humidity;BME280_pressure;Samples;Min_cycle;Max_cycle;Signal;HPM_P1;HPM_P2
2023/10/26 00:00:32;;;;;;;6.25;5.47;;;;;;;13.35;82.14;97345.53;5105559;28;20306;-76
2023/10/26 00:02:59;;;;;;;7.22;6.63;;;;;;;13.41;81.93;97366.22;5105798;28;20200;-76
2023/10/26 00:05:25;;;;;;;6.90;6.30;;;;;;;13.36;81.84;97371.97;5106130;28;20330;-76
2023/10/26 00:07:53;;;;;;;7.32;6.57;;;;;;;13.34;82.15;97381.09;5105021;28;20292;-76
2023/10/26 00:10:20;;;;;;;7.35;5.93;;;;;;;13.32;82.26;97391.88;5105802;28;20052;-75
2023/10/26 00:12:48;;;;;;;7.10;6.50;;;;;;;13.28;82.67;97384.34;5105667;28;20036;-75
2023/10/26 00:15:15;;;;;;;6.40;5.80;;;;;;;13.28;82.70;97387.00;5105640;28;20070;-75
2023/10/26 00:17:41;;;;;;;8.80;6.40;;;;;;;13.28;82.22;97385.19;5106199;28;20059;-75
2023/10/26 00:20:09;;;;;;;6.10;5.50;;;;;;;13.30;82.10;97375.25;5106010;28;20040;-75
2023/10/26 00:22:35;;;;;;;6.85;5.57;;;;;;;13.27;82.09;97372.88;5105243;28;20093;-75
2023/10/26 00:25:03;;;;;;;7.75;6.38;;;;;;;13.21;82.20;97369.97;5106199;28;20052;-75
2023/10/26 00:27:29;;;;;;;7.15;6.45;;;;;;;13.20;82.23;97371.78;5105634;28;20042;-75
2023/10/26 00:29:58;;;;;;;7.38;6.15;;;;;;;13.17;82.05;97366.78;5104940;28;20101;-75
2023/10/26 00:32:25;;;;;;;7.53;5.70;;;;;;;13.23;81.93;97360.84;5105850;28;20044;-75
2023/10/26 00:34:51;;;;;;;7.55;6.82;;;;;;;13.21;82.12;97372.63;5105560;28;20040;-75
2023/10/26 00:37:18;;;;;;;6.38;5.80;;;;;;;13.18;82.25;97373.78;5105142;28;20150;-75
2023/10/26 00:39:45;;;;;;;6.28;5.63;;;;;;;13.14;82.05;97373.22;5105810;28;20093;-75
2023/10/26 00:42:12;;;;;;;6.20;5.53;;;;;;;13.18;82.39;97396.88;5106093;28;20040;-75
2023/10/26 00:44:39;;;;;;;11.27;7.03;;;;;;;13.18;81.89;97400.38;5106036;28;20063;-75
2023/10/26 00:47:08;;;;;;;6.38;5.78;;;;;;;13.14;81.76;97417.59;5105127;28;20059;-75
2023/10/26 00:49:35;;;;;;;5.68;5.13;;;;;;;13.02;81.74;97402.84;5105332;28;20048;-75
2023/10/26 00:52:03;;;;;;;5.35;4.85;;;;;;;13.18;81.80;97437.59;5105367;28;20047;-76
2023/10/26 00:54:30;;;;;;;5.25;4.72;;;;;;;13.15;81.58;97448.53;5104550;28;20081;-75
2023/10/26 00:56:58;;;;;;;5.40;4.20;;;;;;;13.14;81.67;97457.50;5105066;28;20050;-76
2023/10/26 00:59:27;;;;;;;5.78;4.55;;;;;;;13.14;81.55;97460.16;5105627;28;20047;-76
2023/10/26 01:01:56;;;;;;;5.07;4.57;;;;;;;13.13;81.52;97456.66;5087868;28;20075;-76
2023/10/26 01:04:24;;;;;;;5.38;4.72;;;;;;;13.12;81.26;97456.81;5104448;28;20056;-76
2023/10/26 01:06:51;;;;;;;6.15;4.78;;;;;;;13.04;81.35;97470.84;5105319;28;20307;-76
2023/10/26 01:09:18;;;;;;;5.75;5.18;;;;;;;12.91;81.07;97472.97;5104286;28;20114;-76
2023/10/26 01:11:45;;;;;;;6.53;5.82;;;;;;;12.82;81.34;97456.06;5106080;28;20165;-75
2023/10/26 01:14:11;;;;;;;7.05;6.35;;;;;;;12.87;81.14;97439.69;5105980;28;20211;-76
2023/10/26 01:16:38;;;;;;;6.57;5.85;;;;;;;12.88;80.78;97440.53;5105475;28;20051;-76
2023/10/26 01:19:08;;;;;;;7.90;7.10;;;;;;;12.80;80.76;97439.44;5105350;28;20044;-76
2023/10/26 01:21:49;;;;;;;8.18;6.82;;;;;;;12.77;81.25;97439.72;5105413;28;20040;-76
2023/10/26 01:24:15;;;;;;;8.25;7.28;;;;;;;12.72;81.12;97443.81;5105051;28;20082;-76
2023/10/26 01:26:42;;;;;;;7.70;6.80;;;;;;;12.66;81.11;97431.09;5105348;28;20051;-76
2023/10/26 01:29:09;;;;;;;6.82;6.13;;;;;;;12.70;81.33;97443.09;5087431;28;20081;-76
2023/10/26 01:31:36;;;;;;;8.27;7.10;;;;;;;11.70;80.88;97326.63;5105005;28;20052;-76
2023/10/26 01:34:03;;;;;;;7.65;6.68;;;;;;;12.50;81.46;97450.28;5105270;28;20086;-76
2023/10/26 01:36:29;;;;;;;7.57;6.78;;;;;;;12.39;81.51;97445.13;5108905;28;20308;-76
2023/10/26 01:38:59;;;;;;;7.45;6.68;;;;;;;12.40;81.38;97452.13;5108782;28;20085;-76
2023/10/26 01:41:26;;;;;;;6.97;6.28;;;;;;;12.36;81.61;97446.25;5108486;28;20070;-76
2023/10/26 01:43:52;;;;;;;9.38;7.00;;;;;;;12.35;81.14;97438.41;5108712;28;20045;-76
2023/10/26 01:46:19;;;;;;;7.25;6.47;;;;;;;12.46;81.19;97447.06;5108693;28;20094;-77
2023/10/26 01:48:46;;;;;;;7.57;6.78;;;;;;;11.27;80.56;97242.19;5108642;28;20074;-76
2023/10/26 01:51:13;;;;;;;6.60;5.95;;;;;;;12.08;80.68;97389.50;5108302;28;20040;-76
2023/10/26 01:53:40;;;;;;;7.32;6.13;;;;;;;12.17;80.77;97390.50;5107250;28;20048;-75
2023/10/26 01:56:08;;;;;;;7.30;6.30;;;;;;;12.47;80.99;97448.75;5107422;28;20069;-76
2023/10/26 01:58:35;;;;;;;6.38;5.78;;;;;;;12.49;80.40;97451.25;5108118;28;20043;-75
2023/10/26 02:01:01;;;;;;;6.03;5.32;;;;;;;11.49;80.61;97280.84;5108453;28;20052;-75
2023/10/26 02:03:28;;;;;;;6.68;5.38;;;;;;;12.50;80.38;97442.31;5107220;28;20044;-76
2023/10/26 02:05:55;;;;;;;6.07;5.45;;;;;;;12.54;80.01;97434.91;5108067;28;20039;-76
2023/10/26 02:08:22;;;;;;;5.95;5.35;;;;;;;12.49;80.36;97436.16;5108022;28;20071;-76
2023/10/26 02:10:48;;;;;;;6.15;5.45;;;;;;;12.57;80.26;97437.25;5107927;28;20048;-76
2023/10/26 02:13:17;;;;;;;5.90;5.30;;;;;;;12.28;79.73;97400.13;5107995;28;20211;-76
2023/10/26 02:15:44;;;;;;;6.13;5.20;;;;;;;12.50;80.16;97437.00;5108076;28;20189;-76
2023/10/26 02:18:10;;;;;;;5.88;5.18;;;;;;;12.57;79.82;97437.25;5107126;28;20043;-76
2023/10/26 02:20:37;;;;;;;4.93;4.32;;;;;;;12.58;79.72;97437.13;5107705;28;20046;-76
2023/10/26 02:23:04;;;;;;;5.15;4.40;;;;;;;12.56;79.43;97436.44;5108004;28;20040;-76
2023/10/26 02:25:31;;;;;;;5.95;5.35;;;;;;;12.56;79.51;97428.47;5108204;28;20063;-76
2023/10/26 02:27:58;;;;;;;5.80;4.82;;;;;;;12.60;79.22;97423.69;5107860;28;20082;-76
2023/10/26 02:30:26;;;;;;;5.78;4.90;;;;;;;12.46;78.90;97415.19;5107539;28;20093;-75
2023/10/26 02:32:53;;;;;;;4.90;4.35;;;;;;;12.50;79.09;97418.41;5107506;28;20040;-75
2023/10/26 02:35:20;;;;;;;5.55;4.72;;;;;;;12.32;79.00;97389.06;5107733;28;20055;-76
2023/10/26 02:37:47;;;;;;;5.22;4.68;;;;;;;12.50;79.33;97405.13;5107878;28;20043;-76
2023/10/26 02:40:14;;;;;;;4.85;4.35;;;;;;;12.52;79.26;97400.50;5107676;28;20184;-76
2023/10/26 02:42:41;;;;;;;5.60;5.00;;;;;;;12.17;79.50;97340.03;5107589;28;20085;-76
2023/10/26 02:45:09;;;;;;;4.50;4.05;;;;;;;12.38;79.16;97388.50;5106939;28;20059;-76
2023/10/26 02:47:38;;;;;;;6.63;4.70;;;;;;;12.38;79.43;97385.84;5107561;28;20048;-76
2023/10/26 02:50:06;;;;;;;5.32;4.72;;;;;;;12.32;79.29;97386.41;5106629;28;20307;-76
2023/10/26 02:52:33;;;;;;;5.28;3.97;;;;;;;12.33;79.64;97392.56;5106350;28;20246;-76
2023/10/26 02:54:59;;;;;;;4.45;3.55;;;;;;;12.36;78.97;97395.78;5107356;28;20308;-76
2023/10/26 02:57:26;;;;;;;4.20;3.50;;;;;;;12.32;78.64;97398.88;5106008;28;20048;-76
2023/10/26 02:59:53;;;;;;;3.95;3.53;;;;;;;12.34;78.76;97402.22;5107591;28;20051;-76
2023/10/26 03:02:20;;;;;;;5.43;3.78;;;;;;;12.31;78.22;97397.19;5106964;28;20050;-76
2023/10/26 03:04:48;;;;;;;5.88;3.50;;;;;;;12.22;78.11;97396.22;5106803;28;20121;-76
2023/10/26 03:07:22;;;;;;;4.65;3.60;;;;;;;12.32;77.72;97402.34;5106060;28;20043;-76
2023/10/26 03:09:49;;;;;;;3.85;2.78;;;;;;;12.39;77.99;97392.00;5105979;28;20032;-76
2023/10/26 03:12:16;;;;;;;3.38;2.80;;;;;;;12.38;77.05;97411.56;5107046;28;20307;-76
2023/10/26 03:14:42;;;;;;;3.65;2.40;;;;;;;12.36;76.73;97395.78;5106966;28;20049;-76
2023/10/26 03:17:09;;;;;;;3.08;2.30;;;;;;;12.37;76.77;97383.34;5105839;28;20036;-76
2023/10/26 03:19:36;;;;;;;3.25;2.25;;;;;;;12.35;77.12;97390.59;5106594;28;20043;-76
2023/10/26 03:22:03;;;;;;;3.70;2.08;;;;;;;12.34;76.23;97394.25;5105785;28;20238;-76
2023/10/26 03:24:30;;;;;;;3.03;2.00;;;;;;;12.33;75.51;97388.09;5106530;28;20062;-76
2023/10/26 03:26:57;;;;;;;2.80;1.90;;;;;;;12.37;76.03;97389.47;5106469;28;20089;-76
2023/10/26 03:29:24;;;;;;;3.75;1.98;;;;;;;12.32;75.59;97394.38;5106768;28;20039;-76
2023/10/26 03:31:52;;;;;;;3.05;2.13;;;;;;;12.33;75.57;97387.25;5106713;28;20044;-76
2023/10/26 03:34:19;;;;;;;2.75;2.13;;;;;;;12.35;75.44;97387.94;5106623;28;20040;-75
2023/10/26 03:36:46;;;;;;;3.10;1.90;;;;;;;12.34;75.29;97381.81;5106164;28;20043;-76
2023/10/26 03:39:15;;;;;;;2.45;1.80;;;;;;;12.30;75.49;97385.72;5106203;28;20036;-76
2023/10/26 03:41:42;;;;;;;2.72;1.90;;;;;;;12.34;75.30;97383.63;5106110;28;20123;-76
2023/10/26 03:44:09;;;;;;;2.63;1.83;;;;;;;12.34;74.98;97387.13;5106144;28;20247;-76
2023/10/26 03:46:35;;;;;;;3.60;2.15;;;;;;;12.34;75.35;97379.16;5106464;28;20289;-76
2023/10/26 03:49:02;;;;;;;3.03;1.80;;;;;;;12.34;75.10;97373.84;5106390;28;20053;-76
2023/10/26 03:51:29;;;;;;;3.25;2.45;;;;;;;12.14;74.74;97351.75;5105252;28;20036;-76
2023/10/26 03:53:55;;;;;;;3.10;2.30;;;;;;;12.40;75.51;97391.84;5106349;28;20044;-76
2023/10/26 03:56:24;;;;;;;3.58;2.20;;;;;;;12.42;74.36;97381.09;5106237;28;20051;-76
2023/10/26 03:58:50;;;;;;;3.35;1.95;;;;;;;12.39;74.12;97379.56;5104698;28;20231;-76
2023/10/26 04:01:17;;;;;;;2.78;2.00;;;;;;;12.35;74.21;97378.16;5106186;28;20218;-75
2023/10/26 04:03:44;;;;;;;3.28;2.47;;;;;;;12.42;74.66;97383.75;5105098;28;20058;-76
2023/10/26 04:06:11;;;;;;;2.97;2.10;;;;;;;12.42;74.69;97376.59;5106125;28;20040;-75
2023/10/26 04:08:37;;;;;;;3.28;2.50;;;;;;;12.43;73.30;97385.41;5105797;28;20204;-75
2023/10/26 04:11:04;;;;;;;3.45;1.88;;;;;;;12.40;73.68;97385.69;5104995;28;20078;-75
2023/10/26 04:13:32;;;;;;;3.13;1.77;;;;;;;12.43;73.01;97388.91;5105773;28;20089;-75
2023/10/26 04:16:00;;;;;;;3.30;1.98;;;;;;;12.39;72.77;97387.53;5104883;28;20040;-74
2023/10/26 04:18:27;;;;;;;3.75;2.00;;;;;;;12.43;72.98;97404.84;5106122;28;20101;-74
2023/10/26 04:20:53;;;;;;;2.28;1.58;;;;;;;12.48;72.80;97396.44;5104819;28;20185;-75
2023/10/26 04:23:21;;;;;;;2.65;1.67;;;;;;;12.48;72.44;97396.44;5105920;28;20077;-74
2023/10/26 04:25:48;;;;;;;2.90;1.67;;;;;;;12.50;73.32;97387.34;5105926;28;20063;-74
2023/10/26 04:28:15;;;;;;;2.90;1.85;;;;;;;12.50;72.87;97362.59;5105878;28;20040;-74
2023/10/26 04:30:44;;;;;;;2.75;1.77;;;;;;;12.51;72.90;97375.75;5104814;28;20067;-74
2023/10/26 04:33:11;;;;;;;3.30;2.00;;;;;;;12.48;72.37;97376.03;5104698;28;20051;-74
2023/10/26 04:35:41;;;;;;;2.50;1.70;;;;;;;12.50;72.32;97371.41;5105260;28;20047;-74
2023/10/26 04:38:09;;;;;;;2.72;1.63;;;;;;;12.50;72.09;97373.22;5105759;28;20035;-74
2023/10/26 04:40:36;;;;;;;2.38;1.60;;;;;;;12.52;72.19;97376.59;5105620;28;20048;-75
2023/10/26 04:43:03;;;;;;;2.33;1.63;;;;;;;12.55;72.87;97368.31;5106113;28;20035;-74
2023/10/26 04:45:30;;;;;;;2.40;1.70;;;;;;;12.52;71.82;97380.06;5105153;28;20036;-75
2023/10/26 04:47:59;;;;;;;2.28;1.50;;;;;;;12.54;72.02;97371.97;5104647;28;20047;-75
2023/10/26 04:50:25;;;;;;;2.40;1.63;;;;;;;12.54;71.21;97369.31;5105908;28;20052;-75
2023/10/26 04:52:52;;;;;;;2.28;1.63;;;;;;;12.37;71.91;97333.69;5105755;28;20184;-74
2023/10/26 04:55:19;;;;;;;3.15;1.70;;;;;;;12.54;70.87;97368.47;5104604;28;20044;-74
2023/10/26 04:57:46;;;;;;;1.92;1.35;;;;;;;12.56;70.62;97361.19;5104570;28;20226;-73
2023/10/26 05:00:14;;;;;;;2.60;1.50;;;;;;;12.55;70.66;97363.00;5105589;28;20043;-73
2023/10/26 05:02:41;;;;;;;2.55;1.60;;;;;;;12.55;70.75;97355.03;5105760;28;20056;-74
2023/10/26 05:05:10;;;;;;;2.60;1.60;;;;;;;12.56;70.83;97362.03;5105290;28;20044;-73
2023/10/26 05:07:36;;;;;;;2.10;1.40;;;;;;;12.44;70.44;97331.31;5105587;28;20055;-73
2023/10/26 05:10:06;;;;;;;2.55;1.45;;;;;;;12.58;70.32;97352.09;5107698;28;20111;-73
2023/10/26 05:12:32;;;;;;;2.53;1.60;;;;;;;12.59;71.28;97351.09;5109186;28;20108;-73
2023/10/26 05:14:59;;;;;;;2.20;1.52;;;;;;;12.23;70.44;97302.28;5108231;28;20238;-73
2023/10/26 05:17:26;;;;;;;2.67;1.73;;;;;;;12.57;69.78;97347.75;5107986;28;20040;-73
2023/10/26 05:19:53;;;;;;;2.47;1.60;;;;;;;10.14;69.20;96945.22;5107989;28;20097;-73
2023/10/26 05:22:21;;;;;;;2.10;1.40;;;;;;;12.59;70.06;97348.44;5108688;28;20327;-73
2023/10/26 05:24:47;;;;;;;2.55;1.60;;;;;;;11.92;70.36;97229.09;5107796;28;20052;-73
2023/10/26 05:27:14;;;;;;;2.20;1.40;;;;;;;12.60;70.33;97349.28;5109420;28;20338;-73
2023/10/26 05:29:41;;;;;;;2.30;1.50;;;;;;;12.57;69.44;97361.03;5108732;28;20055;-74
2023/10/26 05:32:09;;;;;;;2.35;1.60;;;;;;;12.57;70.01;97363.69;5108194;28;20066;-74
2023/10/26 05:34:36;;;;;;;2.63;1.77;;;;;;;12.57;69.82;97363.69;5108336;28;20101;-74
2023/10/26 05:37:03;;;;;;;2.47;1.50;;;;;;;12.58;69.18;97372.50;5107815;28;20035;-73
2023/10/26 05:39:32;;;;;;;2.55;1.50;;;;;;;12.58;69.35;97364.53;5091010;28;20035;-73
2023/10/26 05:42:02;;;;;;;2.60;1.50;;;;;;;12.29;70.44;97336.25;5107702;28;20044;-73
2023/10/26 05:44:30;;;;;;;2.45;1.63;;;;;;;12.59;70.05;97379.50;5108487;28;20242;-73
2023/10/26 05:46:57;;;;;;;9.55;1.63;;;;;;;12.24;69.75;97327.88;5108749;28;20040;-74
2023/10/26 05:49:24;;;;;;;2.63;1.70;;;;;;;12.61;69.95;97390.81;5107615;28;20089;-73
2023/10/26 05:51:50;;;;;;;2.28;1.50;;;;;;;12.62;69.52;97388.03;5107543;28;20082;-73
2023/10/26 05:54:17;;;;;;;2.20;1.50;;;;;;;12.61;69.08;97388.16;5108605;28;20048;-73
2023/10/26 05:56:45;;;;;;;3.22;1.40;;;;;;;9.59;69.72;96907.91;5090802;28;20263;-73
2023/10/26 05:59:12;;;;;;;2.65;1.60;;;;;;;12.62;69.66;97400.47;5108188;28;20044;-73
2023/10/26 06:01:39;;;;;;;2.22;1.60;;;;;;;12.60;68.30;97399.78;5108155;28;20036;-74
2023/10/26 06:04:06;;;;;;;2.88;1.65;;;;;;;12.60;69.55;97416.56;5108070;28;20063;-74
2023/10/26 06:06:33;;;;;;;2.28;1.40;;;;;;;9.61;68.66;96923.63;5107726;28;20047;-74
2023/10/26 06:09:00;;;;;;;2.78;1.35;;;;;;;12.62;69.22;97419.91;5108246;28;20062;-74
2023/10/26 06:11:28;;;;;;;2.25;1.40;;;;;;;12.60;67.58;97419.22;5108317;28;20037;-74
2023/10/26 06:13:57;;;;;;;2.40;1.35;;;;;;;12.33;68.66;97371.31;5090522;28;20085;-73
2023/10/26 06:16:25;;;;;;;2.38;1.50;;;;;;;12.63;68.83;97431.38;5108194;28;20059;-73
2023/10/26 06:18:53;;;;;;;2.05;1.60;;;;;;;12.63;68.00;97421.59;5107707;28;20040;-73
2023/10/26 06:21:20;;;;;;;3.78;1.60;;;;;;;12.63;68.31;97423.41;5106897;28;20350;-73
2023/10/26 06:23:47;;;;;;;3.50;1.75;;;;;;;12.62;68.48;97424.38;5107803;28;20101;-74
2023/10/26 06:26:14;;;;;;;2.78;1.70;;;;;;;12.63;68.29;97434.88;5108229;28;20040;-74
2023/10/26 06:28:41;;;;;;;2.22;1.50;;;;;;;12.63;67.87;97431.38;5106856;28;20050;-73
2023/10/26 06:31:10;;;;;;;2.47;1.50;;;;;;;12.64;67.76;97431.22;5106553;28;20040;-73
2023/10/26 06:33:37;;;;;;;3.72;1.40;;;;;;;12.63;67.13;97440.19;5107528;28;20355;-74
2023/10/26 06:36:05;;;;;;;3.38;1.83;;;;;;;12.64;68.03;97427.72;5108116;28;20065;-74
2023/10/26 06:38:32;;;;;;;2.28;1.40;;;;;;;12.64;67.76;97443.69;5107500;28;20052;-74
2023/10/26 06:40:58;;;;;;;2.20;1.40;;;;;;;12.63;68.04;97439.34;5107880;28;20040;-73
2023/10/26 06:43:26;;;;;;;2.50;1.50;;;;;;;12.17;68.31;97355.97;5107915;28;20062;-74
2023/10/26 06:45:52;;;;;;;2.47;1.70;;;;;;;11.49;67.42;97249.03;5107616;28;20051;-74
2023/10/26 06:48:21;;;;;;;1.90;1.30;;;;;;;12.66;68.27;97460.31;5107888;28;20090;-74
2023/10/26 06:50:48;;;;;;;2.50;1.60;;;;;;;12.65;68.34;97448.00;5107341;28;20199;-74
2023/10/26 06:53:15;;;;;;;2.85;1.65;;;;;;;12.65;68.44;97454.16;5107467;28;20070;-74
2023/10/26 06:55:42;;;;;;;4.90;1.50;;;;;;;12.67;68.52;97457.53;5106278;28;20040;-74
2023/10/26 06:58:12;;;;;;;2.20;1.40;;;;;;;12.67;67.62;97454.03;5107301;28;20300;-74
2023/10/26 07:00:38;;;;;;;2.40;1.50;;;;;;;12.68;67.87;97447.72;5107339;28;20064;-74
2023/10/26 07:03:06;;;;;;;2.05;1.40;;;;;;;12.68;67.90;97456.53;5107071;28;20052;-74
2023/10/26 07:05:35;;;;;;;2.75;1.50;;;;;;;12.69;67.18;97452.06;5107230;28;20048;-74
2023/10/26 07:08:02;;;;;;;2.30;1.58;;;;;;;12.67;67.79;97449.53;5106060;28;20089;-74
2023/10/26 07:10:31;;;;;;;2.35;1.40;;;;;;;12.68;66.79;97453.03;5107147;28;20093;-74
2023/10/26 07:12:58;;;;;;;2.67;1.70;;;;;;;12.69;67.06;97452.06;5107057;28;20216;-74
2023/10/26 07:15:24;;;;;;;3.67;1.70;;;;;;;12.71;67.22;97453.59;5105593;28;20119;-74
2023/10/26 07:17:51;;;;;;;2.45;1.50;;;;;;;12.74;66.15;97444.50;5107002;28;20066;-74
2023/10/26 07:20:18;;;;;;;2.63;1.60;;;;;;;12.73;66.47;97456.09;5106706;28;20044;-74
2023/10/26 07:22:48;;;;;;;1.90;1.25;;;;;;;12.73;66.37;97456.94;5105761;28;20032;-74
2023/10/26 07:25:15;;;;;;;2.53;1.50;;;;;;;12.73;66.37;97451.63;5106302;28;20250;-74
2023/10/26 07:27:42;;;;;;;2.58;1.60;;;;;;;12.75;66.07;97451.47;5106527;28;20043;-74
2023/10/26 07:30:11;;;;;;;2.33;1.40;;;;;;;12.56;66.01;97424.97;5107010;28;20103;-74
2023/10/26 07:32:38;;;;;;;2.08;1.40;;;;;;;12.70;64.39;97451.91;5105308;28;20127;-74
2023/10/26 07:35:05;;;;;;;2.88;1.70;;;;;;;12.79;63.16;97469.66;5106609;28;20051;-74
2023/10/26 07:37:32;;;;;;;2.70;1.20;;;;;;;12.68;63.02;97450.38;5106192;28;20044;-74
2023/10/26 07:40:00;;;;;;;2.53;1.42;;;;;;;12.86;63.13;97485.88;5105567;28;20230;-75
2023/10/26 07:42:27;;;;;;;2.92;1.40;;;;;;;12.88;61.24;97467.94;5106470;28;20052;-75
2023/10/26 07:44:54;;;;;;;2.30;1.20;;;;;;;12.93;61.58;97470.19;5106463;28;20051;-75
2023/10/26 07:47:21;;;;;;;2.03;1.23;;;;;;;12.84;61.27;97447.97;5106015;28;20064;-75
2023/10/26 07:49:49;;;;;;;2.47;1.35;;;;;;;13.10;61.41;97478.22;5106589;28;20342;-75
2023/10/26 07:52:16;;;;;;;1.70;1.20;;;;;;;13.12;61.66;97480.75;5105229;28;20039;-75
2023/10/26 07:54:42;;;;;;;2.40;1.60;;;;;;;13.10;61.40;97480.91;5106409;28;20055;-75
2023/10/26 07:57:11;;;;;;;2.67;1.60;;;;;;;12.91;61.83;97451.72;5105110;28;20051;-75
2023/10/26 07:59:37;;;;;;;2.67;1.77;;;;;;;13.14;60.59;97484.94;5104775;28;20061;-75
2023/10/26 08:02:04;;;;;;;3.25;1.70;;;;;;;12.69;61.41;97412.19;5106210;28;20048;-75
2023/10/26 08:04:32;;;;;;;2.80;1.60;;;;;;;13.15;60.39;97486.63;5105630;28;20050;-75
2023/10/26 08:07:00;;;;;;;2.47;1.40;;;;;;;13.18;60.35;97484.66;5105874;28;20115;-75
2023/10/26 08:09:31;;;;;;;2.10;1.35;;;;;;;13.21;60.33;97487.84;5106084;28;20176;-75
2023/10/26 08:11:58;;;;;;;2.83;1.55;;;;;;;13.11;59.80;97463.13;5104899;28;20047;-75
2023/10/26 08:14:26;;;;;;;2.20;1.40;;;;;;;13.26;60.81;97474.94;5105949;28;20055;-75
2023/10/26 08:16:53;;;;;;;3.13;1.33;;;;;;;13.28;61.29;97472.97;5104583;28;20101;-75
2023/10/26 08:19:20;;;;;;;2.22;1.50;;;;;;;13.33;60.43;97475.19;5105752;28;20066;-74
2023/10/26 08:21:47;;;;;;;2.30;1.40;;;;;;;13.34;60.53;97480.38;5105891;28;20040;-75
2023/10/26 08:24:14;;;;;;;2.22;1.50;;;;;;;13.42;60.09;97475.19;5104764;28;20345;-75
2023/10/26 08:26:40;;;;;;;4.55;1.70;;;;;;;13.44;60.07;97475.03;5105676;28;20265;-75
2023/10/26 08:29:07;;;;;;;3.97;1.80;;;;;;;13.41;59.81;97476.13;5105894;28;20040;-75
2023/10/26 08:31:46;;;;;;;2.22;1.48;;;;;;;13.11;59.79;97424.06;5105460;28;20060;-75
2023/10/26 08:34:13;;;;;;;2.25;1.65;;;;;;;13.48;59.21;97476.41;5105743;28;20059;-75
2023/10/26 08:36:40;;;;;;;2.88;1.50;;;;;;;13.53;59.13;97478.63;5105762;28;20036;-75
2023/10/26 08:39:07;;;;;;;2.40;1.50;;;;;;;13.51;59.12;97485.94;5104822;28;20123;-75
2023/10/26 08:41:34;;;;;;;2.63;1.58;;;;;;;13.50;60.13;97481.59;5105443;28;20069;-75
2023/10/26 08:44:01;;;;;;;2.40;1.50;;;;;;;13.38;59.43;97451.66;5107054;28;20196;-75
2023/10/26 08:46:29;;;;;;;2.97;1.50;;;;;;;13.27;59.50;97433.22;5109849;28;20039;-75
2023/10/26 08:48:59;;;;;;;2.47;1.60;;;;;;;13.56;58.87;97471.19;5109390;28;20048;-75
2023/10/26 08:51:27;;;;;;;3.78;1.52;;;;;;;13.61;59.20;97476.91;5109485;28;20258;-75
2023/10/26 08:53:56;;;;;;;3.00;1.70;;;;;;;13.65;58.75;97467.63;5109397;28;20067;-75
2023/10/26 08:56:24;;;;;;;2.33;1.60;;;;;;;13.57;59.62;97462.22;5109295;28;20052;-75
2023/10/26 08:58:56;;;;;;;2.65;1.65;;;;;;;13.68;59.41;97464.66;5108331;28;20070;-73
2023/10/26 09:01:23;;;;;;;2.67;1.55;;;;;;;13.12;59.25;97400.97;5108286;28;20276;-74
2023/10/26 09:03:49;;;;;;;2.13;1.50;;;;;;;13.72;59.36;97479.34;5108971;28;20116;-74
2023/10/26 09:06:18;;;;;;;2.30;1.50;;;;;;;13.75;58.61;97483.53;5109066;28;20040;-74
2023/10/26 09:08:45;;;;;;;2.55;1.40;;;;;;;13.76;59.71;97472.75;5109410;28;20077;-74
2023/10/26 09:11:22;;;;;;;3.03;1.90;;;;;;;13.79;59.13;97474.28;5109444;28;20107;-74
2023/10/26 09:13:50;;;;;;;3.97;2.15;;;;;;;13.83;57.97;97486.28;5109502;28;20097;-74
2023/10/26 09:16:17;;;;;;;2.28;1.50;;;;;;;13.54;58.23;97427.09;5109154;28;20044;-74
2023/10/26 09:18:50;;;;;;;3.30;1.90;;;;;;;13.73;58.85;97459.75;5109076;28;20063;-75
2023/10/26 09:21:20;;;;;;;2.78;1.73;;;;;;;13.91;57.57;97489.03;5109056;28;20044;-75
2023/10/26 09:23:48;;;;;;;3.00;1.63;;;;;;;13.89;58.83;97493.69;5109141;28;20211;-75
2023/10/26 09:26:16;;;;;;;2.10;1.40;;;;;;;13.96;58.28;97493.91;5108753;28;20081;-74
2023/10/26 09:28:54;;;;;;;2.53;1.60;;;;;;;13.99;57.31;97494.47;5107918;28;20048;-74
2023/10/26 09:31:21;;;;;;;2.72;1.52;;;;;;;14.04;57.21;97494.00;5108637;28;20040;-75
2023/10/26 09:33:49;;;;;;;2.75;1.63;;;;;;;14.09;56.79;97489.06;5108296;28;20097;-75
2023/10/26 09:36:18;;;;;;;3.08;1.40;;;;;;;14.10;57.46;97490.72;5108694;28;20054;-74
2023/10/26 09:38:47;;;;;;;2.63;1.70;;;;;;;13.80;57.68;97438.66;5108574;28;20176;-74
2023/10/26 09:41:18;;;;;;;3.30;1.48;;;;;;;14.18;57.15;97484.66;5107189;28;20219;-74
2023/10/26 09:43:45;;;;;;;3.25;1.48;;;;;;;13.94;56.18;97429.31;5107458;28;20063;-74
2023/10/26 09:46:14;;;;;;;2.53;1.67;;;;;;;14.27;56.91;97475.72;5107277;28;20036;-74
2023/10/26 09:48:41;;;;;;;3.50;1.75;;;;;;;14.31;56.58;97464.63;5107738;28;20051;-74
2023/10/26 09:51:11;;;;;;;2.70;1.48;;;;;;;14.38;56.61;97460.34;5107325;28;20051;-74
2023/10/26 09:53:40;;;;;;;2.60;1.40;;;;;;;14.45;55.81;97463.22;5107982;28;20040;-75
2023/10/26 09:56:14;;;;;;;2.10;1.40;;;;;;;14.44;55.66;97457.06;5107528;28;20105;-74
2023/10/26 09:58:42;;;;;;;2.00;1.33;;;;;;;14.33;56.38;97437.81;5108394;28;20070;-75
2023/10/26 10:01:33;;;;;;;2.60;1.55;;;;;;;14.50;54.45;97463.59;5108478;28;20040;-75
2023/10/26 10:04:00;;;;;;;2.70;1.50;;;;;;;14.50;55.22;97452.94;5107898;28;20059;-75
2023/10/26 10:06:48;;;;;;;2.58;1.50;;;;;;;14.59;54.02;97445.88;5108308;28;20052;-75
2023/10/26 10:09:17;;;;;;;2.40;1.60;;;;;;;14.63;54.50;97442.78;5108464;28;20087;-75
2023/10/26 10:11:46;;;;;;;3.05;1.50;;;;;;;14.78;54.19;97431.53;5091042;28;20044;-75
2023/10/26 10:14:46;;;;;;;2.55;1.55;;;;;;;14.88;52.70;97438.44;5108252;28;20040;-75
2023/10/26 10:17:13;;;;;;;4.85;1.60;;;;;;;13.37;53.81;97171.44;5108022;28;20040;-75
2023/10/26 10:19:40;;;;;;;2.40;1.40;;;;;;;15.06;53.39;97428.53;5107946;28;20389;-75
2023/10/26 10:22:46;;;;;;;2.40;1.40;;;;;;;12.36;52.61;96985.88;5106393;28;20094;-75
2023/10/26 10:25:14;;;;;;;2.38;1.50;;;;;;;14.89;53.55;97394.75;5108125;28;20052;-73
2023/10/26 10:28:10;;;;;;;3.65;1.60;;;;;;;15.19;51.82;97424.59;5107630;28;20040;-73
2023/10/26 10:30:50;;;;;;;3.42;2.03;;;;;;;14.94;52.23;97365.78;5107419;28;20044;-73
2023/10/26 10:33:23;;;;;;;2.83;1.83;;;;;;;15.43;52.45;97413.16;5089963;28;20036;-74
2023/10/26 10:36:00;;;;;;;2.50;1.70;;;;;;;15.35;51.62;97372.09;5106432;28;20067;-74
2023/10/26 10:38:28;;;;;;;2.80;1.67;;;;;;;15.77;51.47;97405.94;5107227;28;20036;-73
2023/10/26 10:41:10;;;;;;;2.35;1.50;;;;;;;15.86;52.36;97399.59;5107527;28;20174;-74
2023/10/26 10:43:43;;;;;;;2.67;1.35;;;;;;;16.06;50.92;97389.44;5106959;28;20044;-74
2023/10/26 10:46:18;;;;;;;1.92;1.17;;;;;;;15.47;50.69;97286.38;5107504;28;20044;-74
2023/10/26 10:49:03;;;;;;;2.70;1.35;;;;;;;16.10;50.64;97392.63;5107503;28;20031;-74
2023/10/26 10:51:34;;;;;;;1.75;1.10;;;;;;;16.09;50.71;97375.75;5107441;28;20036;-75
2023/10/26 10:54:03;;;;;;;2.30;1.20;;;;;;;16.27;48.29;97376.41;5106416;28;20044;-74
2023/10/26 10:56:36;;;;;;;2.65;1.63;;;;;;;16.48;48.75;97378.56;5107610;28;20048;-74
2023/10/26 10:59:15;;;;;;;2.13;1.20;;;;;;;16.30;48.80;97360.03;5106620;28;20119;-74
2023/10/26 11:01:42;;;;;;;1.85;1.15;;;;;;;16.46;48.57;97371.72;5107065;28;20048;-74
2023/10/26 11:04:13;;;;;;;2.40;1.30;;;;;;;16.49;47.46;97368.69;5105877;28;20335;-76
2023/10/26 11:06:45;;;;;;;1.98;1.40;;;;;;;16.07;48.77;97300.25;5105741;28;20055;-76
2023/10/26 11:09:26;;;;;;;2.88;1.40;;;;;;;16.47;48.79;97371.53;5107142;28;20055;-76
2023/10/26 11:11:53;;;;;;;2.10;1.30;;;;;;;16.61;48.25;97372.69;5105987;28;20056;-75
2023/10/26 11:14:28;;;;;;;1.90;1.20;;;;;;;16.61;47.77;97370.00;5106508;28;20105;-75
2023/10/26 11:16:55;;;;;;;2.45;1.33;;;;;;;16.55;48.23;97368.84;5106847;28;20055;-75
2023/10/26 11:19:21;;;;;;;2.22;1.40;;;;;;;16.53;48.46;97370.84;5106246;28;20106;-75
2023/10/26 11:21:55;;;;;;;2.90;1.45;;;;;;;16.49;48.47;97380.22;5106364;28;20097;-74
2023/10/26 11:24:30;;;;;;;2.85;1.65;;;;;;;16.42;49.35;97381.06;5107026;28;20052;-74
2023/10/26 11:27:07;;;;;;;3.00;1.65;;;;;;;15.37;50.29;97231.31;5106268;28;20097;-74
2023/10/26 11:29:35;;;;;;;2.13;1.33;;;;;;;16.23;50.54;97377.75;5104978;28;20070;-75
2023/10/26 11:32:03;;;;;;;2.50;1.45;;;;;;;15.57;49.35;97273.69;5106317;28;20196;-74
2023/10/26 11:34:30;;;;;;;3.58;1.98;;;;;;;16.17;50.32;97369.56;5106012;28;20231;-75
2023/10/26 11:36:59;;;;;;;6.20;3.70;;;;;;;15.69;49.55;97294.59;5106474;28;20284;-75
2023/10/26 11:39:27;;;;;;;6.05;3.30;;;;;;;15.81;49.43;97315.63;5106094;28;20044;-75